sensor_id;sensor_type;location;lat;lon;timestamp;P1;durP1;ratioP1;P2;durP2;ratioP2
23121;SDS011;11730;51.248;22.534;2024-01-15T00:00:34;27.65;;;12.85;;
23121;SDS011;11730;51.248;22.534;2024-01-15T00:03:01;21.83;;;10.88;;
23121;SDS011;11730;51.248;22.534;2024-01-15T00:05:29;24.30;;;13.85;;
23121;SDS011;11730;51.248;22.534;2024-01-15T00:07:56;23.50;;;13.70;;
23121;SDS011;11730;51.248;22.534;2024-01-15T00:10:23;22.85;;;12.45;;
23121;SDS011;11730;51.248;22.534;2024-01-15T00:12:50;23.58;;;11.52;;
23121;SDS011;11730;51.248;22.534;2024-01-15T00:15:18;23.75;;;13.80;;
23121;SDS011;11730;51.248;22.534;2024-01-15T00:17:45;24.75;;;14.43;;
23121;SDS011;11730;51.248;22.534;2024-01-15T00:20:12;28.40;;;14.45;;
23121;SDS011;11730;51.248;22.534;2024-01-15T00:22:39;25.50;;;14.68;;
23121;SDS011;11730;51.248;22.534;2024-01-15T00:25:07;26.10;;;14.55;;
23121;SDS011;11730;51.248;22.534;2024-01-15T00:27:34;26.02;;;11.80;;
23121;SDS011;11730;51.248;22.534;2024-01-15T00:30:01;25.27;;;13.88;;
23121;SDS011;11730;51.248;22.534;2024-01-15T00:32:29;28.70;;;14.68;;
23121;SDS011;11730;51.248;22.534;2024-01-15T00:34:56;27.85;;;14.38;;
23121;SDS011;11730;51.248;22.534;2024-01-15T00:37:23;28.90;;;15.20;;
23121;SDS011;11730;51.248;22.534;2024-01-15T00:39:50;25.58;;;14.13;;
23121;SDS011;11730;51.248;22.534;2024-01-15T00:42:18;27.02;;;13.73;;
23121;SDS011;11730;51.248;22.534;2024-01-15T00:44:46;26.48;;;15.23;;
23121;SDS011;11730;51.248;22.534;2024-01-15T00:47:13;25.13;;;14.15;;
23121;SDS011;11730;51.248;22.534;2024-01-15T00:49:40;26.35;;;13.70;;
23121;SDS011;11730;51.248;22.534;2024-01-15T00:52:07;26.58;;;13.07;;
23121;SDS011;11730;51.248;22.534;2024-01-15T00:54:35;28.38;;;14.63;;
23121;SDS011;11730;51.248;22.534;2024-01-15T00:57:02;31.45;;;14.98;;
23121;SDS011;11730;51.248;22.534;2024-01-15T00:59:30;22.73;;;13.13;;
23121;SDS011;11730;51.248;22.534;2024-01-15T01:01:57;22.88;;;13.23;;
23121;SDS011;11730;51.248;22.534;2024-01-15T01:04:25;25.83;;;11.93;;
23121;SDS011;11730;51.248;22.534;2024-01-15T01:06:52;27.58;;;14.90;;
23121;SDS011;11730;51.248;22.534;2024-01-15T01:09:19;28.52;;;15.45;;
23121;SDS011;11730;51.248;22.534;2024-01-15T01:11:46;26.70;;;14.40;;
23121;SDS011;11730;51.248;22.534;2024-01-15T01:14:13;20.73;;;12.25;;
23121;SDS011;11730;51.248;22.534;2024-01-15T01:16:40;30.52;;;15.35;;
23121;SDS011;11730;51.248;22.534;2024-01-15T01:19:07;27.75;;;15.43;;
23121;SDS011;11730;51.248;22.534;2024-01-15T01:21:35;19.63;;;11.45;;
23121;SDS011;11730;51.248;22.534;2024-01-15T01:24:02;24.92;;;12.90;;
23121;SDS011;11730;51.248;22.534;2024-01-15T01:26:30;26.15;;;14.60;;
23121;SDS011;11730;51.248;22.534;2024-01-15T01:28:57;27.55;;;14.98;;
23121;SDS011;11730;51.248;22.534;2024-01-15T01:31:24;29.15;;;15.70;;
23121;SDS011;11730;51.248;22.534;2024-01-15T01:33:51;32.22;;;16.20;;
23121;SDS011;11730;51.248;22.534;2024-01-15T01:36:18;27.77;;;15.35;;
23121;SDS011;11730;51.248;22.534;2024-01-15T01:38:46;28.35;;;14.60;;
23121;SDS011;11730;51.248;22.534;2024-01-15T01:41:13;23.35;;;10.63;;
23121;SDS011;11730;51.248;22.534;2024-01-15T01:43:40;25.10;;;12.63;;
23121;SDS011;11730;51.248;22.534;2024-01-15T01:46:07;24.67;;;10.48;;
23121;SDS011;11730;51.248;22.534;2024-01-15T01:48:34;29.60;;;14.73;;
23121;SDS011;11730;51.248;22.534;2024-01-15T01:51:03;23.40;;;12.95;;
23121;SDS011;11730;51.248;22.534;2024-01-15T01:53:31;27.20;;;13.63;;
23121;SDS011;11730;51.248;22.534;2024-01-15T01:56:00;29.75;;;14.10;;
23121;SDS011;11730;51.248;22.534;2024-01-15T01:58:27;26.08;;;13.80;;
23121;SDS011;11730;51.248;22.534;2024-01-15T02:00:56;21.40;;;12.30;;
23121;SDS011;11730;51.248;22.534;2024-01-15T02:03:23;28.75;;;13.73;;
23121;SDS011;11730;51.248;22.534;2024-01-15T02:05:51;26.00;;;12.80;;
23121;SDS011;11730;51.248;22.534;2024-01-15T02:08:19;26.98;;;12.82;;
23121;SDS011;11730;51.248;22.534;2024-01-15T02:10:47;22.58;;;11.60;;
23121;SDS011;11730;51.248;22.534;2024-01-15T02:13:14;27.15;;;13.98;;
23121;SDS011;11730;51.248;22.534;2024-01-15T02:15:41;26.98;;;13.60;;
23121;SDS011;11730;51.248;22.534;2024-01-15T02:18:08;23.17;;;13.70;;
23121;SDS011;11730;51.248;22.534;2024-01-15T02:20:36;24.27;;;13.75;;
23121;SDS011;11730;51.248;22.534;2024-01-15T02:25:46;28.27;;;14.25;;
23121;SDS011;11730;51.248;22.534;2024-01-15T02:28:14;28.88;;;11.93;;
23121;SDS011;11730;51.248;22.534;2024-01-15T02:30:43;21.77;;;12.15;;
23121;SDS011;11730;51.248;22.534;2024-01-15T02:33:11;27.30;;;13.80;;
23121;SDS011;11730;51.248;22.534;2024-01-15T02:35:39;27.27;;;13.77;;
23121;SDS011;11730;51.248;22.534;2024-01-15T02:38:08;21.23;;;10.25;;
23121;SDS011;11730;51.248;22.534;2024-01-15T02:40:35;21.27;;;10.75;;
23121;SDS011;11730;51.248;22.534;2024-01-15T02:43:03;20.55;;;11.35;;
23121;SDS011;11730;51.248;22.534;2024-01-15T02:45:30;23.05;;;12.32;;
23121;SDS011;11730;51.248;22.534;2024-01-15T02:47:57;21.45;;;11.93;;
23121;SDS011;11730;51.248;22.534;2024-01-15T02:50:24;22.95;;;11.75;;
23121;SDS011;11730;51.248;22.534;2024-01-15T02:52:51;22.17;;;13.00;;
23121;SDS011;11730;51.248;22.534;2024-01-15T02:55:18;23.33;;;11.98;;
23121;SDS011;11730;51.248;22.534;2024-01-15T02:57:46;21.58;;;10.75;;
23121;SDS011;11730;51.248;22.534;2024-01-15T03:00:13;24.58;;;12.70;;
23121;SDS011;11730;51.248;22.534;2024-01-15T03:02:40;21.67;;;11.98;;
23121;SDS011;11730;51.248;22.534;2024-01-15T03:05:14;23.83;;;12.50;;
23121;SDS011;11730;51.248;22.534;2024-01-15T03:07:41;21.02;;;11.23;;
23121;SDS011;11730;51.248;22.534;2024-01-15T03:10:09;20.38;;;11.10;;
23121;SDS011;11730;51.248;22.534;2024-01-15T03:12:36;14.30;;;9.20;;
23121;SDS011;11730;51.248;22.534;2024-01-15T03:15:03;18.77;;;10.43;;
23121;SDS011;11730;51.248;22.534;2024-01-15T03:17:31;18.27;;;10.13;;
23121;SDS011;11730;51.248;22.534;2024-01-15T03:19:58;19.98;;;12.48;;
23121;SDS011;11730;51.248;22.534;2024-01-15T03:22:25;21.23;;;10.80;;
23121;SDS011;11730;51.248;22.534;2024-01-15T03:24:53;18.50;;;10.48;;
23121;SDS011;11730;51.248;22.534;2024-01-15T03:27:20;21.98;;;11.80;;
23121;SDS011;11730;51.248;22.534;2024-01-15T03:29:47;19.70;;;10.52;;
23121;SDS011;11730;51.248;22.534;2024-01-15T03:32:14;19.10;;;11.10;;
23121;SDS011;11730;51.248;22.534;2024-01-15T03:34:42;13.63;;;7.95;;
23121;SDS011;11730;51.248;22.534;2024-01-15T03:37:09;14.77;;;8.52;;
23121;SDS011;11730;51.248;22.534;2024-01-15T03:39:37;16.42;;;9.80;;
23121;SDS011;11730;51.248;22.534;2024-01-15T03:42:04;15.98;;;10.07;;
23121;SDS011;11730;51.248;22.534;2024-01-15T03:44:33;19.55;;;11.52;;
23121;SDS011;11730;51.248;22.534;2024-01-15T03:46:59;21.30;;;10.60;;
23121;SDS011;11730;51.248;22.534;2024-01-15T03:49:27;18.23;;;10.75;;
23121;SDS011;11730;51.248;22.534;2024-01-15T03:51:54;18.17;;;8.90;;
23121;SDS011;11730;51.248;22.534;2024-01-15T03:54:22;19.67;;;10.30;;
23121;SDS011;11730;51.248;22.534;2024-01-15T03:56:49;17.70;;;10.18;;
23121;SDS011;11730;51.248;22.534;2024-01-15T03:59:16;19.13;;;8.98;;
23121;SDS011;11730;51.248;22.534;2024-01-15T04:01:49;16.05;;;8.52;;
23121;SDS011;11730;51.248;22.534;2024-01-15T04:04:20;14.82;;;8.85;;
23121;SDS011;11730;51.248;22.534;2024-01-15T04:06:47;14.82;;;9.57;;
23121;SDS011;11730;51.248;22.534;2024-01-15T04:09:14;13.35;;;8.23;;
23121;SDS011;11730;51.248;22.534;2024-01-15T04:11:42;12.98;;;8.18;;
23121;SDS011;11730;51.248;22.534;2024-01-15T04:14:09;14.95;;;8.23;;
23121;SDS011;11730;51.248;22.534;2024-01-15T04:16:37;15.82;;;9.43;;
23121;SDS011;11730;51.248;22.534;2024-01-15T04:19:04;14.57;;;8.90;;
23121;SDS011;11730;51.248;22.534;2024-01-15T04:21:31;12.85;;;7.30;;
23121;SDS011;11730;51.248;22.534;2024-01-15T04:23:59;15.38;;;8.35;;
23121;SDS011;11730;51.248;22.534;2024-01-15T04:26:26;13.50;;;7.43;;
23121;SDS011;11730;51.248;22.534;2024-01-15T04:28:53;16.13;;;8.82;;
23121;SDS011;11730;51.248;22.534;2024-01-15T04:31:21;13.23;;;8.18;;
23121;SDS011;11730;51.248;22.534;2024-01-15T04:33:54;14.25;;;8.82;;
23121;SDS011;11730;51.248;22.534;2024-01-15T04:36:24;12.15;;;5.93;;
23121;SDS011;11730;51.248;22.534;2024-01-15T04:38:51;17.27;;;8.18;;
23121;SDS011;11730;51.248;22.534;2024-01-15T04:41:19;11.05;;;6.97;;
23121;SDS011;11730;51.248;22.534;2024-01-15T04:43:46;10.90;;;6.47;;
23121;SDS011;11730;51.248;22.534;2024-01-15T04:46:13;13.00;;;7.25;;
23121;SDS011;11730;51.248;22.534;2024-01-15T04:48:40;11.88;;;7.38;;
23121;SDS011;11730;51.248;22.534;2024-01-15T04:51:08;10.30;;;7.45;;
23121;SDS011;11730;51.248;22.534;2024-01-15T04:53:35;11.00;;;6.72;;
23121;SDS011;11730;51.248;22.534;2024-01-15T04:56:02;10.85;;;6.97;;
23121;SDS011;11730;51.248;22.534;2024-01-15T04:58:30;12.02;;;6.22;;
23121;SDS011;11730;51.248;22.534;2024-01-15T05:00:57;9.95;;;7.03;;
23121;SDS011;11730;51.248;22.534;2024-01-15T05:03:24;13.95;;;7.60;;
23121;SDS011;11730;51.248;22.534;2024-01-15T05:05:51;11.52;;;7.22;;
23121;SDS011;11730;51.248;22.534;2024-01-15T05:08:18;14.65;;;8.18;;
23121;SDS011;11730;51.248;22.534;2024-01-15T05:10:45;8.52;;;6.95;;
23121;SDS011;11730;51.248;22.534;2024-01-15T05:13:12;11.23;;;7.22;;
23121;SDS011;11730;51.248;22.534;2024-01-15T05:15:39;16.42;;;7.15;;
23121;SDS011;11730;51.248;22.534;2024-01-15T05:18:06;15.07;;;8.50;;
23121;SDS011;11730;51.248;22.534;2024-01-15T05:20:34;13.02;;;8.23;;
23121;SDS011;11730;51.248;22.534;2024-01-15T05:23:02;14.35;;;9.30;;
23121;SDS011;11730;51.248;22.534;2024-01-15T05:25:29;13.77;;;8.35;;
23121;SDS011;11730;51.248;22.534;2024-01-15T05:27:56;11.90;;;8.25;;
23121;SDS011;11730;51.248;22.534;2024-01-15T05:30:23;13.27;;;7.95;;
23121;SDS011;11730;51.248;22.534;2024-01-15T05:32:51;11.25;;;7.85;;
23121;SDS011;11730;51.248;22.534;2024-01-15T05:35:18;14.85;;;7.82;;
23121;SDS011;11730;51.248;22.534;2024-01-15T05:37:45;10.50;;;6.28;;
23121;SDS011;11730;51.248;22.534;2024-01-15T05:40:12;10.93;;;7.10;;
23121;SDS011;11730;51.248;22.534;2024-01-15T05:42:40;11.52;;;7.65;;
23121;SDS011;11730;51.248;22.534;2024-01-15T05:45:07;11.32;;;6.22;;
23121;SDS011;11730;51.248;22.534;2024-01-15T05:47:35;9.88;;;6.95;;
23121;SDS011;11730;51.248;22.534;2024-01-15T05:50:03;10.95;;;7.00;;
23121;SDS011;11730;51.248;22.534;2024-01-15T05:52:31;9.77;;;6.22;;
23121;SDS011;11730;51.248;22.534;2024-01-15T05:54:58;10.30;;;6.60;;
23121;SDS011;11730;51.248;22.534;2024-01-15T05:57:25;11.90;;;7.15;;
23121;SDS011;11730;51.248;22.534;2024-01-15T05:59:52;9.93;;;5.40;;
23121;SDS011;11730;51.248;22.534;2024-01-15T06:02:20;9.07;;;5.75;;
23121;SDS011;11730;51.248;22.534;2024-01-15T06:04:47;7.70;;;5.82;;
23121;SDS011;11730;51.248;22.534;2024-01-15T06:07:15;7.55;;;5.22;;
23121;SDS011;11730;51.248;22.534;2024-01-15T06:09:42;7.72;;;5.40;;
23121;SDS011;11730;51.248;22.534;2024-01-15T06:12:09;5.43;;;4.63;;
23121;SDS011;11730;51.248;22.534;2024-01-15T06:14:36;8.82;;;6.18;;
23121;SDS011;11730;51.248;22.534;2024-01-15T06:17:03;9.85;;;5.75;;
23121;SDS011;11730;51.248;22.534;2024-01-15T06:19:30;10.88;;;5.30;;
23121;SDS011;11730;51.248;22.534;2024-01-15T06:21:58;8.68;;;6.22;;
23121;SDS011;11730;51.248;22.534;2024-01-15T06:24:26;9.23;;;5.40;;
23121;SDS011;11730;51.248;22.534;2024-01-15T06:26:53;9.25;;;6.93;;
23121;SDS011;11730;51.248;22.534;2024-01-15T06:29:20;14.43;;;8.43;;
23121;SDS011;11730;51.248;22.534;2024-01-15T06:31:47;10.00;;;6.10;;
23121;SDS011;11730;51.248;22.534;2024-01-15T06:34:15;10.50;;;6.35;;
23121;SDS011;11730;51.248;22.534;2024-01-15T06:36:43;6.55;;;5.40;;
23121;SDS011;11730;51.248;22.534;2024-01-15T06:39:10;8.63;;;6.20;;
23121;SDS011;11730;51.248;22.534;2024-01-15T06:41:37;10.30;;;6.20;;
23121;SDS011;11730;51.248;22.534;2024-01-15T06:44:10;10.05;;;6.32;;
23121;SDS011;11730;51.248;22.534;2024-01-15T06:46:41;11.02;;;7.05;;
23121;SDS011;11730;51.248;22.534;2024-01-15T06:49:09;7.45;;;5.47;;
23121;SDS011;11730;51.248;22.534;2024-01-15T06:51:37;9.00;;;4.80;;
23121;SDS011;11730;51.248;22.534;2024-01-15T06:54:04;6.80;;;5.13;;
23121;SDS011;11730;51.248;22.534;2024-01-15T06:56:32;9.65;;;5.88;;
23121;SDS011;11730;51.248;22.534;2024-01-15T06:58:59;6.38;;;5.03;;
23121;SDS011;11730;51.248;22.534;2024-01-15T07:01:26;9.10;;;6.10;;
23121;SDS011;11730;51.248;22.534;2024-01-15T07:03:53;6.30;;;4.63;;
23121;SDS011;11730;51.248;22.534;2024-01-15T07:06:21;10.70;;;6.22;;
23121;SDS011;11730;51.248;22.534;2024-01-15T07:08:48;7.45;;;5.38;;
23121;SDS011;11730;51.248;22.534;2024-01-15T07:11:16;10.82;;;5.00;;
23121;SDS011;11730;51.248;22.534;2024-01-15T07:13:43;10.57;;;6.55;;
23121;SDS011;11730;51.248;22.534;2024-01-15T07:16:11;7.78;;;5.95;;
23121;SDS011;11730;51.248;22.534;2024-01-15T07:18:39;7.53;;;5.40;;
23121;SDS011;11730;51.248;22.534;2024-01-15T07:21:06;11.00;;;5.88;;
23121;SDS011;11730;51.248;22.534;2024-01-15T07:23:33;5.55;;;4.05;;
23121;SDS011;11730;51.248;22.534;2024-01-15T07:26:00;8.75;;;5.70;;
23121;SDS011;11730;51.248;22.534;2024-01-15T07:28:28;15.32;;;5.38;;
23121;SDS011;11730;51.248;22.534;2024-01-15T07:30:55;8.15;;;5.38;;
23121;SDS011;11730;51.248;22.534;2024-01-15T07:33:23;6.35;;;4.55;;
23121;SDS011;11730;51.248;22.534;2024-01-15T07:35:50;7.50;;;5.05;;
23121;SDS011;11730;51.248;22.534;2024-01-15T07:38:17;12.20;;;5.40;;
23121;SDS011;11730;51.248;22.534;2024-01-15T07:40:44;7.35;;;5.00;;
23121;SDS011;11730;51.248;22.534;2024-01-15T07:43:11;8.77;;;4.60;;
23121;SDS011;11730;51.248;22.534;2024-01-15T07:45:38;7.60;;;4.55;;
23121;SDS011;11730;51.248;22.534;2024-01-15T07:48:08;8.38;;;4.43;;
23121;SDS011;11730;51.248;22.534;2024-01-15T07:50:36;10.80;;;5.35;;
23121;SDS011;11730;51.248;22.534;2024-01-15T07:53:03;9.13;;;5.30;;
23121;SDS011;11730;51.248;22.534;2024-01-15T07:55:30;9.25;;;3.97;;
23121;SDS011;11730;51.248;22.534;2024-01-15T07:57:58;7.38;;;5.05;;
23121;SDS011;11730;51.248;22.534;2024-01-15T08:00:40;7.53;;;4.40;;
23121;SDS011;11730;51.248;22.534;2024-01-15T08:03:07;7.35;;;4.82;;
23121;SDS011;11730;51.248;22.534;2024-01-15T08:05:35;9.40;;;6.10;;
23121;SDS011;11730;51.248;22.534;2024-01-15T08:08:02;11.27;;;6.80;;
23121;SDS011;11730;51.248;22.534;2024-01-15T08:10:29;10.43;;;6.30;;
23121;SDS011;11730;51.248;22.534;2024-01-15T08:12:57;14.70;;;7.03;;
23121;SDS011;11730;51.248;22.534;2024-01-15T08:15:24;11.63;;;5.65;;
23121;SDS011;11730;51.248;22.534;2024-01-15T08:17:56;10.52;;;7.00;;
23121;SDS011;11730;51.248;22.534;2024-01-15T08:20:24;8.75;;;5.95;;
23121;SDS011;11730;51.248;22.534;2024-01-15T08:22:52;7.40;;;5.38;;
23121;SDS011;11730;51.248;22.534;2024-01-15T08:25:19;10.98;;;6.95;;
23121;SDS011;11730;51.248;22.534;2024-01-15T08:27:46;10.98;;;6.95;;
23121;SDS011;11730;51.248;22.534;2024-01-15T08:30:13;9.15;;;5.60;;
23121;SDS011;11730;51.248;22.534;2024-01-15T08:32:41;11.18;;;7.65;;
23121;SDS011;11730;51.248;22.534;2024-01-15T08:35:09;10.70;;;6.75;;
23121;SDS011;11730;51.248;22.534;2024-01-15T08:37:37;12.73;;;7.38;;
23121;SDS011;11730;51.248;22.534;2024-01-15T08:40:05;11.98;;;7.47;;
23121;SDS011;11730;51.248;22.534;2024-01-15T08:42:32;9.77;;;6.22;;
23121;SDS011;11730;51.248;22.534;2024-01-15T08:44:59;10.65;;;7.63;;
23121;SDS011;11730;51.248;22.534;2024-01-15T08:47:27;12.75;;;7.05;;
23121;SDS011;11730;51.248;22.534;2024-01-15T08:49:54;9.93;;;5.82;;
23121;SDS011;11730;51.248;22.534;2024-01-15T08:52:21;12.35;;;7.32;;
23121;SDS011;11730;51.248;22.534;2024-01-15T08:54:48;11.63;;;6.55;;
23121;SDS011;11730;51.248;22.534;2024-01-15T08:57:15;11.05;;;5.60;;
23121;SDS011;11730;51.248;22.534;2024-01-15T08:59:43;8.50;;;6.00;;
23121;SDS011;11730;51.248;22.534;2024-01-15T09:02:11;10.00;;;5.95;;
23121;SDS011;11730;51.248;22.534;2024-01-15T09:04:38;6.35;;;5.18;;
23121;SDS011;11730;51.248;22.534;2024-01-15T09:07:07;9.18;;;6.15;;
23121;SDS011;11730;51.248;22.534;2024-01-15T09:09:34;9.38;;;5.88;;
23121;SDS011;11730;51.248;22.534;2024-01-15T09:12:03;8.82;;;5.78;;
23121;SDS011;11730;51.248;22.534;2024-01-15T09:14:30;9.18;;;5.70;;
23121;SDS011;11730;51.248;22.534;2024-01-15T09:17:03;8.35;;;4.53;;
23121;SDS011;11730;51.248;22.534;2024-01-15T09:19:31;8.90;;;6.70;;
23121;SDS011;11730;51.248;22.534;2024-01-15T09:21:59;9.57;;;6.00;;
23121;SDS011;11730;51.248;22.534;2024-01-15T09:24:26;10.05;;;6.25;;
23121;SDS011;11730;51.248;22.534;2024-01-15T09:26:55;7.82;;;5.53;;
23121;SDS011;11730;51.248;22.534;2024-01-15T09:29:22;9.13;;;5.78;;
23121;SDS011;11730;51.248;22.534;2024-01-15T09:31:50;12.75;;;6.95;;
23121;SDS011;11730;51.248;22.534;2024-01-15T09:34:18;13.45;;;5.68;;
23121;SDS011;11730;51.248;22.534;2024-01-15T09:36:46;10.85;;;5.57;;
23121;SDS011;11730;51.248;22.534;2024-01-15T09:39:15;9.85;;;6.05;;
23121;SDS011;11730;51.248;22.534;2024-01-15T09:41:43;11.38;;;6.25;;
23121;SDS011;11730;51.248;22.534;2024-01-15T09:44:10;9.52;;;6.13;;
23121;SDS011;11730;51.248;22.534;2024-01-15T09:46:38;9.25;;;6.15;;
23121;SDS011;11730;51.248;22.534;2024-01-15T09:49:06;10.73;;;7.32;;
23121;SDS011;11730;51.248;22.534;2024-01-15T09:51:34;10.52;;;6.38;;
23121;SDS011;11730;51.248;22.534;2024-01-15T09:54:02;10.40;;;6.70;;
23121;SDS011;11730;51.248;22.534;2024-01-15T09:56:30;7.18;;;5.38;;
23121;SDS011;11730;51.248;22.534;2024-01-15T09:58:58;9.38;;;5.97;;
23121;SDS011;11730;51.248;22.534;2024-01-15T10:01:26;12.15;;;6.07;;
23121;SDS011;11730;51.248;22.534;2024-01-15T10:03:54;10.65;;;6.05;;
23121;SDS011;11730;51.248;22.534;2024-01-15T10:06:22;8.77;;;5.47;;
23121;SDS011;11730;51.248;22.534;2024-01-15T10:08:50;12.30;;;7.53;;
23121;SDS011;11730;51.248;22.534;2024-01-15T10:11:18;11.98;;;6.88;;
23121;SDS011;11730;51.248;22.534;2024-01-15T10:13:46;17.83;;;6.60;;
23121;SDS011;11730;51.248;22.534;2024-01-15T10:16:16;19.98;;;6.88;;
23121;SDS011;11730;51.248;22.534;2024-01-15T10:18:43;11.68;;;6.70;;
23121;SDS011;11730;51.248;22.534;2024-01-15T10:21:10;12.75;;;6.97;;
23121;SDS011;11730;51.248;22.534;2024-01-15T10:23:37;10.23;;;6.72;;
23121;SDS011;11730;51.248;22.534;2024-01-15T10:26:05;13.60;;;8.43;;
23121;SDS011;11730;51.248;22.534;2024-01-15T10:28:32;8.57;;;5.80;;
23121;SDS011;11730;51.248;22.534;2024-01-15T10:31:00;9.55;;;6.45;;
23121;SDS011;11730;51.248;22.534;2024-01-15T10:33:27;10.90;;;5.97;;
23121;SDS011;11730;51.248;22.534;2024-01-15T10:35:55;8.30;;;5.93;;
23121;SDS011;11730;51.248;22.534;2024-01-15T10:38:23;12.68;;;8.23;;
23121;SDS011;11730;51.248;22.534;2024-01-15T10:40:51;11.00;;;6.97;;
23121;SDS011;11730;51.248;22.534;2024-01-15T10:43:22;11.93;;;6.40;;
23121;SDS011;11730;51.248;22.534;2024-01-15T10:45:54;13.20;;;7.80;;
23121;SDS011;11730;51.248;22.534;2024-01-15T10:48:22;10.82;;;6.18;;
23121;SDS011;11730;51.248;22.534;2024-01-15T10:50:49;9.98;;;5.80;;
23121;SDS011;11730;51.248;22.534;2024-01-15T10:53:17;12.18;;;6.95;;
23121;SDS011;11730;51.248;22.534;2024-01-15T10:55:44;10.90;;;7.40;;
23121;SDS011;11730;51.248;22.534;2024-01-15T10:58:15;11.80;;;7.45;;
23121;SDS011;11730;51.248;22.534;2024-01-15T11:00:43;14.25;;;8.18;;
23121;SDS011;11730;51.248;22.534;2024-01-15T11:03:11;12.80;;;7.88;;
23121;SDS011;11730;51.248;22.534;2024-01-15T11:05:39;12.68;;;7.65;;
23121;SDS011;11730;51.248;22.534;2024-01-15T11:08:09;7.60;;;5.35;;
23121;SDS011;11730;51.248;22.534;2024-01-15T11:10:46;13.85;;;7.30;;
23121;SDS011;11730;51.248;22.534;2024-01-15T11:13:39;12.45;;;7.47;;
23121;SDS011;11730;51.248;22.534;2024-01-15T11:16:07;10.98;;;7.03;;
23121;SDS011;11730;51.248;22.534;2024-01-15T11:18:37;13.85;;;7.93;;
23121;SDS011;11730;51.248;22.534;2024-01-15T11:23:42;12.93;;;7.55;;
23121;SDS011;11730;51.248;22.534;2024-01-15T11:29:04;14.95;;;7.63;;
23121;SDS011;11730;51.248;22.534;2024-01-15T11:34:07;12.68;;;6.68;;
23121;SDS011;11730;51.248;22.534;2024-01-15T11:41:55;10.88;;;6.65;;
23121;SDS011;11730;51.248;22.534;2024-01-15T11:44:22;8.80;;;6.15;;
23121;SDS011;11730;51.248;22.534;2024-01-15T11:46:57;8.70;;;5.63;;
23121;SDS011;11730;51.248;22.534;2024-01-15T11:52:17;8.80;;;5.30;;
23121;SDS011;11730;51.248;22.534;2024-01-15T11:54:49;14.77;;;7.88;;
23121;SDS011;11730;51.248;22.534;2024-01-15T11:57:22;11.40;;;6.75;;
23121;SDS011;11730;51.248;22.534;2024-01-15T11:59:58;12.65;;;7.18;;
23121;SDS011;11730;51.248;22.534;2024-01-15T12:02:25;10.70;;;6.45;;
23121;SDS011;11730;51.248;22.534;2024-01-15T12:04:52;14.02;;;6.18;;
23121;SDS011;11730;51.248;22.534;2024-01-15T12:07:19;12.68;;;7.20;;
23121;SDS011;11730;51.248;22.534;2024-01-15T12:09:46;12.65;;;6.78;;
23121;SDS011;11730;51.248;22.534;2024-01-15T12:12:16;14.45;;;7.43;;
23121;SDS011;11730;51.248;22.534;2024-01-15T12:14:55;15.07;;;7.35;;
23121;SDS011;11730;51.248;22.534;2024-01-15T12:17:22;18.58;;;7.03;;
23121;SDS011;11730;51.248;22.534;2024-01-15T12:19:50;17.77;;;6.88;;
23121;SDS011;11730;51.248;22.534;2024-01-15T12:22:17;11.95;;;7.22;;
23121;SDS011;11730;51.248;22.534;2024-01-15T12:24:44;12.30;;;6.75;;
23121;SDS011;11730;51.248;22.534;2024-01-15T12:27:11;12.50;;;6.70;;
23121;SDS011;11730;51.248;22.534;2024-01-15T12:29:38;44.15;;;23.27;;
23121;SDS011;11730;51.248;22.534;2024-01-15T12:32:05;10.45;;;6.47;;
23121;SDS011;11730;51.248;22.534;2024-01-15T12:34:34;11.52;;;6.93;;
23121;SDS011;11730;51.248;22.534;2024-01-15T12:37:01;12.77;;;7.65;;
23121;SDS011;11730;51.248;22.534;2024-01-15T12:39:28;12.70;;;7.00;;
23121;SDS011;11730;51.248;22.534;2024-01-15T12:41:56;15.40;;;7.13;;
23121;SDS011;11730;51.248;22.534;2024-01-15T12:44:23;17.08;;;10.20;;
23121;SDS011;11730;51.248;22.534;2024-01-15T12:46:50;13.48;;;7.78;;
23121;SDS011;11730;51.248;22.534;2024-01-15T12:49:17;11.13;;;6.32;;
23121;SDS011;11730;51.248;22.534;2024-01-15T12:51:51;12.50;;;7.53;;
23121;SDS011;11730;51.248;22.534;2024-01-15T12:54:20;14.30;;;7.40;;
23121;SDS011;11730;51.248;22.534;2024-01-15T12:56:47;14.52;;;7.88;;
23121;SDS011;11730;51.248;22.534;2024-01-15T12:59:14;8.88;;;6.25;;
23121;SDS011;11730;51.248;22.534;2024-01-15T13:01:42;16.38;;;7.45;;
23121;SDS011;11730;51.248;22.534;2024-01-15T13:04:09;7.65;;;4.57;;
23121;SDS011;11730;51.248;22.534;2024-01-15T13:06:36;9.60;;;5.32;;
23121;SDS011;11730;51.248;22.534;2024-01-15T13:09:04;13.88;;;6.88;;
23121;SDS011;11730;51.248;22.534;2024-01-15T13:11:36;11.77;;;6.32;;
23121;SDS011;11730;51.248;22.534;2024-01-15T13:14:04;15.32;;;8.10;;
23121;SDS011;11730;51.248;22.534;2024-01-15T13:16:30;12.35;;;7.00;;
23121;SDS011;11730;51.248;22.534;2024-01-15T13:18:58;12.77;;;7.10;;
23121;SDS011;11730;51.248;22.534;2024-01-15T13:21:25;14.05;;;6.45;;
23121;SDS011;11730;51.248;22.534;2024-01-15T13:23:53;12.13;;;6.68;;
23121;SDS011;11730;51.248;22.534;2024-01-15T13:26:20;11.73;;;6.65;;
23121;SDS011;11730;51.248;22.534;2024-01-15T13:28:47;15.02;;;7.65;;
23121;SDS011;11730;51.248;22.534;2024-01-15T13:31:15;12.73;;;6.93;;
23121;SDS011;11730;51.248;22.534;2024-01-15T13:33:42;14.55;;;7.82;;
23121;SDS011;11730;51.248;22.534;2024-01-15T13:36:10;10.95;;;6.72;;
23121;SDS011;11730;51.248;22.534;2024-01-15T13:38:37;13.60;;;7.20;;
23121;SDS011;11730;51.248;22.534;2024-01-15T13:41:04;13.43;;;7.78;;
23121;SDS011;11730;51.248;22.534;2024-01-15T13:43:32;12.52;;;7.78;;
23121;SDS011;11730;51.248;22.534;2024-01-15T13:45:59;15.73;;;8.43;;
23121;SDS011;11730;51.248;22.534;2024-01-15T13:48:30;12.02;;;7.25;;
23121;SDS011;11730;51.248;22.534;2024-01-15T13:50:58;14.98;;;8.07;;
23121;SDS011;11730;51.248;22.534;2024-01-15T13:53:25;15.25;;;7.28;;
23121;SDS011;11730;51.248;22.534;2024-01-15T13:55:52;12.27;;;7.20;;
23121;SDS011;11730;51.248;22.534;2024-01-15T13:58:19;10.40;;;7.22;;
23121;SDS011;11730;51.248;22.534;2024-01-15T14:00:47;10.68;;;7.15;;
23121;SDS011;11730;51.248;22.534;2024-01-15T14:03:15;12.65;;;7.57;;
23121;SDS011;11730;51.248;22.534;2024-01-15T14:05:42;15.60;;;8.13;;
23121;SDS011;11730;51.248;22.534;2024-01-15T14:08:09;13.02;;;6.55;;
23121;SDS011;11730;51.248;22.534;2024-01-15T14:10:36;15.95;;;6.95;;
23121;SDS011;11730;51.248;22.534;2024-01-15T14:13:04;12.45;;;7.25;;
23121;SDS011;11730;51.248;22.534;2024-01-15T14:15:31;18.15;;;9.38;;
23121;SDS011;11730;51.248;22.534;2024-01-15T14:17:58;16.85;;;9.07;;
23121;SDS011;11730;51.248;22.534;2024-01-15T14:20:27;12.13;;;7.85;;
23121;SDS011;11730;51.248;22.534;2024-01-15T14:22:54;12.63;;;6.82;;
23121;SDS011;11730;51.248;22.534;2024-01-15T14:25:21;15.02;;;8.18;;
23121;SDS011;11730;51.248;22.534;2024-01-15T14:27:48;13.02;;;7.72;;
23121;SDS011;11730;51.248;22.534;2024-01-15T14:30:16;13.60;;;8.05;;
23121;SDS011;11730;51.248;22.534;2024-01-15T14:32:44;15.30;;;8.85;;
23121;SDS011;11730;51.248;22.534;2024-01-15T14:35:11;14.32;;;7.97;;
23121;SDS011;11730;51.248;22.534;2024-01-15T14:37:40;14.93;;;8.48;;
23121;SDS011;11730;51.248;22.534;2024-01-15T14:40:07;14.80;;;8.65;;
23121;SDS011;11730;51.248;22.534;2024-01-15T14:42:34;18.45;;;9.73;;